sensor_id;sensor_type;location;lat;lon;timestamp;P1;durP1;ratioP1;P2;durP2;ratioP2
50821;SDS011;36794;51.212;6.980;2022-11-14T00:00:20;8.13;;;5.17;;
50821;SDS011;36794;51.212;6.980;2022-11-14T00:02:46;7.60;;;4.83;;
50821;SDS011;36794;51.212;6.980;2022-11-14T00:05:12;6.23;;;4.30;;
50821;SDS011;36794;51.212;6.980;2022-11-14T00:07:38;8.17;;;4.57;;
50821;SDS011;36794;51.212;6.980;2022-11-14T00:10:04;7.23;;;3.83;;
50821;SDS011;36794;51.212;6.980;2022-11-14T00:12:30;10.60;;;4.33;;
50821;SDS011;36794;51.212;6.980;2022-11-14T00:14:56;6.30;;;3.60;;
50821;SDS011;36794;51.212;6.980;2022-11-14T00:17:22;6.07;;;3.57;;
50821;SDS011;36794;51.212;6.980;2022-11-14T00:19:48;6.03;;;3.00;;
50821;SDS011;36794;51.212;6.980;2022-11-14T00:22:14;3.27;;;1.70;;
50821;SDS011;36794;51.212;6.980;2022-11-14T00:24:40;2.90;;;1.63;;
50821;SDS011;36794;51.212;6.980;2022-11-14T00:27:06;4.57;;;1.77;;
50821;SDS011;36794;51.212;6.980;2022-11-14T00:29:32;3.30;;;1.57;;
50821;SDS011;36794;51.212;6.980;2022-11-14T00:31:58;2.80;;;1.70;;
50821;SDS011;36794;51.212;6.980;2022-11-14T00:34:24;2.60;;;1.80;;
50821;SDS011;36794;51.212;6.980;2022-11-14T00:36:50;3.33;;;1.57;;
50821;SDS011;36794;51.212;6.980;2022-11-14T00:39:16;2.50;;;1.73;;
50821;SDS011;36794;51.212;6.980;2022-11-14T00:41:42;3.97;;;1.67;;
50821;SDS011;36794;51.212;6.980;2022-11-14T00:44:08;6.53;;;1.80;;
50821;SDS011;36794;51.212;6.980;2022-11-14T00:46:35;3.00;;;2.00;;
50821;SDS011;36794;51.212;6.980;2022-11-14T00:49:01;2.40;;;1.53;;
50821;SDS011;36794;51.212;6.980;2022-11-14T00:51:27;8.30;;;2.27;;
50821;SDS011;36794;51.212;6.980;2022-11-14T00:53:53;2.43;;;1.77;;
50821;SDS011;36794;51.212;6.980;2022-11-14T00:56:19;2.50;;;1.73;;
50821;SDS011;36794;51.212;6.980;2022-11-14T00:58:44;4.00;;;1.70;;
50821;SDS011;36794;51.212;6.980;2022-11-14T01:01:10;2.73;;;1.90;;
50821;SDS011;36794;51.212;6.980;2022-11-14T01:03:36;3.90;;;1.67;;
50821;SDS011;36794;51.212;6.980;2022-11-14T01:06:04;3.70;;;1.50;;
50821;SDS011;36794;51.212;6.980;2022-11-14T01:08:30;3.33;;;1.70;;
50821;SDS011;36794;51.212;6.980;2022-11-14T01:10:56;2.87;;;1.90;;
50821;SDS011;36794;51.212;6.980;2022-11-14T01:13:23;5.67;;;1.93;;
50821;SDS011;36794;51.212;6.980;2022-11-14T01:15:49;4.33;;;1.80;;
50821;SDS011;36794;51.212;6.980;2022-11-14T01:18:17;3.10;;;1.57;;
50821;SDS011;36794;51.212;6.980;2022-11-14T01:20:44;3.50;;;1.90;;
50821;SDS011;36794;51.212;6.980;2022-11-14T01:23:11;3.23;;;1.80;;
50821;SDS011;36794;51.212;6.980;2022-11-14T01:25:38;2.67;;;1.90;;
50821;SDS011;36794;51.212;6.980;2022-11-14T01:28:05;3.30;;;1.70;;
50821;SDS011;36794;51.212;6.980;2022-11-14T01:30:31;2.47;;;1.50;;
50821;SDS011;36794;51.212;6.980;2022-11-14T01:32:57;3.50;;;1.90;;
50821;SDS011;36794;51.212;6.980;2022-11-14T01:35:23;3.30;;;1.70;;
50821;SDS011;36794;51.212;6.980;2022-11-14T01:37:49;2.27;;;2.00;;
50821;SDS011;36794;51.212;6.980;2022-11-14T01:40:15;4.03;;;1.87;;
50821;SDS011;36794;51.212;6.980;2022-11-14T01:42:41;5.23;;;2.10;;
50821;SDS011;36794;51.212;6.980;2022-11-14T01:47:52;3.55;;;1.80;;
50821;SDS011;36794;51.212;6.980;2022-11-14T01:50:18;5.27;;;1.73;;
50821;SDS011;36794;51.212;6.980;2022-11-14T01:52:44;2.83;;;1.70;;
50821;SDS011;36794;51.212;6.980;2022-11-14T01:55:10;5.90;;;2.03;;
50821;SDS011;36794;51.212;6.980;2022-11-14T01:57:41;5.40;;;2.00;;
50821;SDS011;36794;51.212;6.980;2022-11-14T02:00:08;3.33;;;2.33;;
50821;SDS011;36794;51.212;6.980;2022-11-14T02:02:35;2.73;;;2.00;;
50821;SDS011;36794;51.212;6.980;2022-11-14T02:05:03;3.53;;;1.87;;
50821;SDS011;36794;51.212;6.980;2022-11-14T02:07:31;3.43;;;1.97;;
50821;SDS011;36794;51.212;6.980;2022-11-14T02:09:58;3.47;;;1.90;;
50821;SDS011;36794;51.212;6.980;2022-11-14T02:12:25;4.33;;;2.40;;
50821;SDS011;36794;51.212;6.980;2022-11-14T02:14:53;3.40;;;2.30;;
50821;SDS011;36794;51.212;6.980;2022-11-14T02:17:19;5.13;;;2.37;;
50821;SDS011;36794;51.212;6.980;2022-11-14T02:19:46;4.37;;;2.30;;
50821;SDS011;36794;51.212;6.980;2022-11-14T02:22:13;4.07;;;2.63;;
50821;SDS011;36794;51.212;6.980;2022-11-14T02:24:39;4.67;;;2.53;;
50821;SDS011;36794;51.212;6.980;2022-11-14T02:27:05;3.97;;;2.27;;
50821;SDS011;36794;51.212;6.980;2022-11-14T02:29:32;3.57;;;2.10;;
50821;SDS011;36794;51.212;6.980;2022-11-14T02:31:58;3.87;;;2.37;;
50821;SDS011;36794;51.212;6.980;2022-11-14T02:34:24;5.00;;;2.70;;
50821;SDS011;36794;51.212;6.980;2022-11-14T02:36:50;6.87;;;2.50;;
50821;SDS011;36794;51.212;6.980;2022-11-14T02:39:16;3.37;;;2.20;;
50821;SDS011;36794;51.212;6.980;2022-11-14T02:41:42;5.20;;;2.43;;
50821;SDS011;36794;51.212;6.980;2022-11-14T02:44:08;4.63;;;2.50;;
50821;SDS011;36794;51.212;6.980;2022-11-14T02:46:34;5.00;;;2.90;;
50821;SDS011;36794;51.212;6.980;2022-11-14T02:49:00;5.43;;;2.80;;
50821;SDS011;36794;51.212;6.980;2022-11-14T02:51:26;3.87;;;2.60;;
50821;SDS011;36794;51.212;6.980;2022-11-14T02:53:52;3.97;;;2.50;;
50821;SDS011;36794;51.212;6.980;2022-11-14T02:56:17;3.47;;;2.40;;
50821;SDS011;36794;51.212;6.980;2022-11-14T02:58:43;4.33;;;3.03;;
50821;SDS011;36794;51.212;6.980;2022-11-14T03:01:10;3.80;;;2.67;;
50821;SDS011;36794;51.212;6.980;2022-11-14T03:03:36;5.67;;;2.80;;
50821;SDS011;36794;51.212;6.980;2022-11-14T03:06:02;4.10;;;2.93;;
50821;SDS011;36794;51.212;6.980;2022-11-14T03:08:28;5.97;;;2.90;;
50821;SDS011;36794;51.212;6.980;2022-11-14T03:10:54;5.73;;;3.00;;
50821;SDS011;36794;51.212;6.980;2022-11-14T03:13:20;4.70;;;3.00;;
50821;SDS011;36794;51.212;6.980;2022-11-14T03:15:46;4.93;;;2.93;;
50821;SDS011;36794;51.212;6.980;2022-11-14T03:18:12;5.27;;;3.10;;
50821;SDS011;36794;51.212;6.980;2022-11-14T03:20:38;4.83;;;3.10;;
50821;SDS011;36794;51.212;6.980;2022-11-14T03:23:04;4.10;;;2.73;;
50821;SDS011;36794;51.212;6.980;2022-11-14T03:25:30;5.40;;;3.07;;
50821;SDS011;36794;51.212;6.980;2022-11-14T03:27:56;4.07;;;3.00;;
50821;SDS011;36794;51.212;6.980;2022-11-14T03:30:22;6.73;;;3.30;;
50821;SDS011;36794;51.212;6.980;2022-11-14T03:32:48;5.20;;;2.83;;
50821;SDS011;36794;51.212;6.980;2022-11-14T03:35:14;4.03;;;3.00;;
50821;SDS011;36794;51.212;6.980;2022-11-14T03:37:40;5.10;;;3.00;;
50821;SDS011;36794;51.212;6.980;2022-11-14T03:40:06;4.63;;;2.77;;
50821;SDS011;36794;51.212;6.980;2022-11-14T03:42:33;4.37;;;3.10;;
50821;SDS011;36794;51.212;6.980;2022-11-14T03:44:59;4.37;;;2.90;;
50821;SDS011;36794;51.212;6.980;2022-11-14T03:47:25;6.27;;;3.13;;
50821;SDS011;36794;51.212;6.980;2022-11-14T03:49:51;3.67;;;2.80;;
50821;SDS011;36794;51.212;6.980;2022-11-14T03:52:17;4.87;;;3.17;;
50821;SDS011;36794;51.212;6.980;2022-11-14T03:54:43;5.37;;;3.10;;
50821;SDS011;36794;51.212;6.980;2022-11-14T03:57:09;6.37;;;2.97;;
50821;SDS011;36794;51.212;6.980;2022-11-14T03:59:35;4.67;;;3.47;;
50821;SDS011;36794;51.212;6.980;2022-11-14T04:02:00;6.30;;;3.30;;
50821;SDS011;36794;51.212;6.980;2022-11-14T04:04:26;7.70;;;3.90;;
50821;SDS011;36794;51.212;6.980;2022-11-14T04:06:52;6.10;;;3.53;;
50821;SDS011;36794;51.212;6.980;2022-11-14T04:09:18;5.73;;;3.50;;
50821;SDS011;36794;51.212;6.980;2022-11-14T04:11:44;4.97;;;3.03;;
50821;SDS011;36794;51.212;6.980;2022-11-14T04:14:10;6.23;;;3.63;;
50821;SDS011;36794;51.212;6.980;2022-11-14T04:16:36;7.87;;;3.67;;
50821;SDS011;36794;51.212;6.980;2022-11-14T04:19:02;5.07;;;3.57;;
50821;SDS011;36794;51.212;6.980;2022-11-14T04:21:28;6.73;;;3.73;;
50821;SDS011;36794;51.212;6.980;2022-11-14T04:23:54;3.93;;;3.20;;
50821;SDS011;36794;51.212;6.980;2022-11-14T04:26:20;6.60;;;4.10;;
50821;SDS011;36794;51.212;6.980;2022-11-14T04:28:46;6.73;;;3.73;;
50821;SDS011;36794;51.212;6.980;2022-11-14T04:31:12;6.17;;;3.97;;
50821;SDS011;36794;51.212;6.980;2022-11-14T04:33:37;6.47;;;3.93;;
50821;SDS011;36794;51.212;6.980;2022-11-14T04:36:03;6.27;;;4.10;;
50821;SDS011;36794;51.212;6.980;2022-11-14T04:38:29;6.57;;;4.17;;
50821;SDS011;36794;51.212;6.980;2022-11-14T04:40:55;16.57;;;4.53;;
50821;SDS011;36794;51.212;6.980;2022-11-14T04:43:21;5.33;;;3.60;;
50821;SDS011;36794;51.212;6.980;2022-11-14T04:45:47;7.27;;;3.93;;
50821;SDS011;36794;51.212;6.980;2022-11-14T04:48:13;5.93;;;3.50;;
50821;SDS011;36794;51.212;6.980;2022-11-14T04:50:39;6.17;;;3.87;;
50821;SDS011;36794;51.212;6.980;2022-11-14T04:53:05;5.80;;;4.00;;
50821;SDS011;36794;51.212;6.980;2022-11-14T04:55:31;6.67;;;4.23;;
50821;SDS011;36794;51.212;6.980;2022-11-14T04:57:57;8.40;;;4.20;;
50821;SDS011;36794;51.212;6.980;2022-11-14T05:00:23;6.77;;;4.00;;
50821;SDS011;36794;51.212;6.980;2022-11-14T05:02:49;7.83;;;4.37;;
50821;SDS011;36794;51.212;6.980;2022-11-14T05:05:15;5.77;;;4.37;;
50821;SDS011;36794;51.212;6.980;2022-11-14T05:07:41;8.67;;;4.10;;
50821;SDS011;36794;51.212;6.980;2022-11-14T05:10:08;7.67;;;4.23;;
50821;SDS011;36794;51.212;6.980;2022-11-14T05:12:34;5.90;;;4.00;;
50821;SDS011;36794;51.212;6.980;2022-11-14T05:15:00;6.83;;;4.80;;
50821;SDS011;36794;51.212;6.980;2022-11-14T05:17:26;8.13;;;4.33;;
50821;SDS011;36794;51.212;6.980;2022-11-14T05:19:52;7.40;;;4.47;;
50821;SDS011;36794;51.212;6.980;2022-11-14T05:22:18;7.13;;;4.10;;
50821;SDS011;36794;51.212;6.980;2022-11-14T05:24:44;7.77;;;4.87;;
50821;SDS011;36794;51.212;6.980;2022-11-14T05:27:10;7.00;;;4.70;;
50821;SDS011;36794;51.212;6.980;2022-11-14T05:29:36;7.90;;;4.93;;
50821;SDS011;36794;51.212;6.980;2022-11-14T05:32:02;7.37;;;4.83;;
50821;SDS011;36794;51.212;6.980;2022-11-14T05:34:28;9.87;;;5.50;;
50821;SDS011;36794;51.212;6.980;2022-11-14T05:36:54;8.93;;;5.13;;
50821;SDS011;36794;51.212;6.980;2022-11-14T05:39:19;9.50;;;5.73;;
50821;SDS011;36794;51.212;6.980;2022-11-14T05:41:45;8.13;;;5.27;;
50821;SDS011;36794;51.212;6.980;2022-11-14T05:44:11;10.10;;;5.87;;
50821;SDS011;36794;51.212;6.980;2022-11-14T05:46:37;9.13;;;5.10;;
50821;SDS011;36794;51.212;6.980;2022-11-14T05:49:03;11.93;;;5.90;;
50821;SDS011;36794;51.212;6.980;2022-11-14T05:51:29;10.07;;;5.73;;
50821;SDS011;36794;51.212;6.980;2022-11-14T05:53:55;7.77;;;5.80;;
50821;SDS011;36794;51.212;6.980;2022-11-14T05:56:21;9.93;;;5.97;;
50821;SDS011;36794;51.212;6.980;2022-11-14T05:58:47;9.70;;;5.70;;
50821;SDS011;36794;51.212;6.980;2022-11-14T06:01:14;9.03;;;6.23;;
50821;SDS011;36794;51.212;6.980;2022-11-14T06:03:41;7.50;;;5.33;;
50821;SDS011;36794;51.212;6.980;2022-11-14T06:06:08;10.00;;;6.33;;
50821;SDS011;36794;51.212;6.980;2022-11-14T06:08:35;9.70;;;6.47;;
50821;SDS011;36794;51.212;6.980;2022-11-14T06:11:02;10.73;;;5.87;;
50821;SDS011;36794;51.212;6.980;2022-11-14T06:13:28;9.03;;;6.20;;
50821;SDS011;36794;51.212;6.980;2022-11-14T06:16:00;9.90;;;6.23;;
50821;SDS011;36794;51.212;6.980;2022-11-14T06:18:27;9.70;;;6.40;;
50821;SDS011;36794;51.212;6.980;2022-11-14T06:20:53;11.13;;;7.13;;
50821;SDS011;36794;51.212;6.980;2022-11-14T06:23:19;11.17;;;6.50;;
50821;SDS011;36794;51.212;6.980;2022-11-14T06:25:45;10.40;;;6.43;;
50821;SDS011;36794;51.212;6.980;2022-11-14T06:28:11;9.27;;;6.27;;
50821;SDS011;36794;51.212;6.980;2022-11-14T06:30:37;11.67;;;7.10;;
50821;SDS011;36794;51.212;6.980;2022-11-14T06:33:03;9.53;;;6.73;;
50821;SDS011;36794;51.212;6.980;2022-11-14T06:35:29;11.83;;;6.83;;
50821;SDS011;36794;51.212;6.980;2022-11-14T06:37:57;9.60;;;6.93;;
50821;SDS011;36794;51.212;6.980;2022-11-14T06:40:24;10.27;;;6.90;;
50821;SDS011;36794;51.212;6.980;2022-11-14T06:42:50;15.33;;;7.27;;
50821;SDS011;36794;51.212;6.980;2022-11-14T06:45:15;21.17;;;8.57;;
50821;SDS011;36794;51.212;6.980;2022-11-14T06:47:41;16.77;;;7.27;;
50821;SDS011;36794;51.212;6.980;2022-11-14T06:50:07;14.30;;;7.27;;
50821;SDS011;36794;51.212;6.980;2022-11-14T06:52:33;11.07;;;6.83;;
50821;SDS011;36794;51.212;6.980;2022-11-14T06:54:59;10.77;;;6.77;;
50821;SDS011;36794;51.212;6.980;2022-11-14T06:57:25;18.77;;;9.07;;
50821;SDS011;36794;51.212;6.980;2022-11-14T06:59:51;12.67;;;7.53;;
50821;SDS011;36794;51.212;6.980;2022-11-14T07:02:17;11.07;;;7.70;;
50821;SDS011;36794;51.212;6.980;2022-11-14T07:04:43;11.93;;;7.90;;
50821;SDS011;36794;51.212;6.980;2022-11-14T07:07:09;12.23;;;7.97;;
50821;SDS011;36794;51.212;6.980;2022-11-14T07:09:35;13.70;;;7.77;;
50821;SDS011;36794;51.212;6.980;2022-11-14T07:12:01;15.90;;;8.47;;
50821;SDS011;36794;51.212;6.980;2022-11-14T07:14:27;11.20;;;7.37;;
50821;SDS011;36794;51.212;6.980;2022-11-14T07:16:53;13.03;;;7.93;;
50821;SDS011;36794;51.212;6.980;2022-11-14T07:19:19;14.07;;;7.97;;
50821;SDS011;36794;51.212;6.980;2022-11-14T07:21:44;13.90;;;8.50;;
50821;SDS011;36794;51.212;6.980;2022-11-14T07:24:10;13.83;;;8.63;;
50821;SDS011;36794;51.212;6.980;2022-11-14T07:26:36;11.93;;;8.03;;
50821;SDS011;36794;51.212;6.980;2022-11-14T07:29:02;12.73;;;7.80;;
50821;SDS011;36794;51.212;6.980;2022-11-14T07:31:28;11.33;;;7.80;;
50821;SDS011;36794;51.212;6.980;2022-11-14T07:33:54;12.23;;;8.67;;
50821;SDS011;36794;51.212;6.980;2022-11-14T07:36:21;12.23;;;8.43;;
50821;SDS011;36794;51.212;6.980;2022-11-14T07:38:47;12.73;;;8.37;;
50821;SDS011;36794;51.212;6.980;2022-11-14T07:41:14;14.43;;;9.33;;
50821;SDS011;36794;51.212;6.980;2022-11-14T07:43:40;14.20;;;8.13;;
50821;SDS011;36794;51.212;6.980;2022-11-14T07:46:09;14.63;;;8.73;;
50821;SDS011;36794;51.212;6.980;2022-11-14T07:48:35;12.27;;;8.33;;
50821;SDS011;36794;51.212;6.980;2022-11-14T07:51:02;13.27;;;8.83;;
50821;SDS011;36794;51.212;6.980;2022-11-14T07:53:28;11.90;;;8.63;;
50821;SDS011;36794;51.212;6.980;2022-11-14T07:55:55;14.87;;;9.73;;
50821;SDS011;36794;51.212;6.980;2022-11-14T07:58:21;14.37;;;9.53;;
50821;SDS011;36794;51.212;6.980;2022-11-14T08:00:47;17.10;;;10.90;;
50821;SDS011;36794;51.212;6.980;2022-11-14T08:03:13;17.37;;;10.43;;
50821;SDS011;36794;51.212;6.980;2022-11-14T08:05:39;17.77;;;10.80;;
50821;SDS011;36794;51.212;6.980;2022-11-14T08:08:05;18.60;;;11.83;;
50821;SDS011;36794;51.212;6.980;2022-11-14T08:10:31;18.33;;;12.20;;
50821;SDS011;36794;51.212;6.980;2022-11-14T08:12:58;22.97;;;12.90;;
50821;SDS011;36794;51.212;6.980;2022-11-14T08:15:24;21.27;;;13.13;;
50821;SDS011;36794;51.212;6.980;2022-11-14T08:17:50;20.60;;;12.90;;
50821;SDS011;36794;51.212;6.980;2022-11-14T08:20:16;20.30;;;12.93;;
50821;SDS011;36794;51.212;6.980;2022-11-14T08:22:42;21.93;;;13.37;;
50821;SDS011;36794;51.212;6.980;2022-11-14T08:25:08;22.73;;;14.70;;
50821;SDS011;36794;51.212;6.980;2022-11-14T08:27:34;25.20;;;14.13;;
50821;SDS011;36794;51.212;6.980;2022-11-14T08:30:00;23.67;;;14.60;;
50821;SDS011;36794;51.212;6.980;2022-11-14T08:32:29;24.40;;;14.27;;
50821;SDS011;36794;51.212;6.980;2022-11-14T08:34:55;26.07;;;14.97;;
50821;SDS011;36794;51.212;6.980;2022-11-14T08:37:21;25.70;;;14.67;;
50821;SDS011;36794;51.212;6.980;2022-11-14T08:39:47;26.47;;;14.90;;
50821;SDS011;36794;51.212;6.980;2022-11-14T08:42:13;25.57;;;15.50;;
50821;SDS011;36794;51.212;6.980;2022-11-14T08:44:38;30.07;;;15.53;;
50821;SDS011;36794;51.212;6.980;2022-11-14T08:47:04;27.13;;;16.03;;
50821;SDS011;36794;51.212;6.980;2022-11-14T08:49:30;29.67;;;16.50;;
50821;SDS011;36794;51.212;6.980;2022-11-14T08:51:56;27.40;;;15.77;;
50821;SDS011;36794;51.212;6.980;2022-11-14T08:54:22;28.50;;;17.00;;
50821;SDS011;36794;51.212;6.980;2022-11-14T08:56:48;28.77;;;16.03;;
50821;SDS011;36794;51.212;6.980;2022-11-14T08:59:14;27.77;;;16.70;;
50821;SDS011;36794;51.212;6.980;2022-11-14T09:01:40;33.00;;;17.93;;
50821;SDS011;36794;51.212;6.980;2022-11-14T09:04:06;29.13;;;17.00;;
50821;SDS011;36794;51.212;6.980;2022-11-14T09:06:32;25.90;;;15.57;;
50821;SDS011;36794;51.212;6.980;2022-11-14T09:08:58;28.33;;;17.23;;
50821;SDS011;36794;51.212;6.980;2022-11-14T09:11:24;33.47;;;17.67;;
50821;SDS011;36794;51.212;6.980;2022-11-14T09:13:50;28.03;;;17.03;;
50821;SDS011;36794;51.212;6.980;2022-11-14T09:16:16;30.13;;;17.07;;
50821;SDS011;36794;51.212;6.980;2022-11-14T09:18:42;28.37;;;17.03;;
50821;SDS011;36794;51.212;6.980;2022-11-14T09:21:09;28.10;;;16.60;;
50821;SDS011;36794;51.212;6.980;2022-11-14T09:23:35;28.83;;;16.30;;
50821;SDS011;36794;51.212;6.980;2022-11-14T09:26:05;25.17;;;15.67;;
50821;SDS011;36794;51.212;6.980;2022-11-14T09:28:31;28.67;;;16.93;;
50821;SDS011;36794;51.212;6.980;2022-11-14T09:31:03;26.57;;;15.90;;
50821;SDS011;36794;51.212;6.980;2022-11-14T09:33:30;24.73;;;14.73;;
50821;SDS011;36794;51.212;6.980;2022-11-14T09:35:57;26.97;;;14.80;;
50821;SDS011;36794;51.212;6.980;2022-11-14T09:38:23;26.53;;;14.97;;
50821;SDS011;36794;51.212;6.980;2022-11-14T09:45:53;25.90;;;14.07;;
50821;SDS011;36794;51.212;6.980;2022-11-14T09:48:20;20.77;;;12.60;;
50821;SDS011;36794;51.212;6.980;2022-11-14T09:53:28;21.10;;;13.03;;
50821;SDS011;36794;51.212;6.980;2022-11-14T09:55:55;22.83;;;13.37;;
50821;SDS011;36794;51.212;6.980;2022-11-14T09:58:22;22.23;;;13.00;;
50821;SDS011;36794;51.212;6.980;2022-11-14T10:00:59;23.70;;;12.23;;
50821;SDS011;36794;51.212;6.980;2022-11-14T10:03:44;21.37;;;13.13;;
50821;SDS011;36794;51.212;6.980;2022-11-14T10:06:26;23.45;;;12.65;;
50821;SDS011;36794;51.212;6.980;2022-11-14T10:11:37;23.40;;;12.67;;
50821;SDS011;36794;51.212;6.980;2022-11-14T10:16:58;21.13;;;11.40;;
50821;SDS011;36794;51.212;6.980;2022-11-14T10:24:37;18.43;;;11.33;;
50821;SDS011;36794;51.212;6.980;2022-11-14T10:27:17;17.57;;;11.03;;
50821;SDS011;36794;51.212;6.980;2022-11-14T10:30:00;15.30;;;9.60;;
50821;SDS011;36794;51.212;6.980;2022-11-14T10:35:38;18.77;;;10.53;;
50821;SDS011;36794;51.212;6.980;2022-11-14T10:40:38;18.83;;;10.80;;
50821;SDS011;36794;51.212;6.980;2022-11-14T10:45:40;15.68;;;9.55;;
50821;SDS011;36794;51.212;6.980;2022-11-14T10:48:15;17.03;;;10.83;;
50821;SDS011;36794;51.212;6.980;2022-11-14T10:50:45;17.05;;;9.85;;
50821;SDS011;36794;51.212;6.980;2022-11-14T10:56:00;20.17;;;11.27;;
50821;SDS011;36794;51.212;6.980;2022-11-14T10:58:26;17.57;;;11.13;;
50821;SDS011;36794;51.212;6.980;2022-11-14T11:00:52;20.83;;;11.80;;
50821;SDS011;36794;51.212;6.980;2022-11-14T11:03:17;19.03;;;10.77;;
50821;SDS011;36794;51.212;6.980;2022-11-14T11:05:45;20.70;;;12.40;;
50821;SDS011;36794;51.212;6.980;2022-11-14T11:08:11;24.17;;;16.27;;
50821;SDS011;36794;51.212;6.980;2022-11-14T11:10:57;14.93;;;8.82;;
50821;SDS011;36794;51.212;6.980;2022-11-14T11:13:48;21.30;;;12.23;;
50821;SDS011;36794;51.212;6.980;2022-11-14T11:16:18;18.80;;;12.20;;
50821;SDS011;36794;51.212;6.980;2022-11-14T11:18:44;18.07;;;11.30;;
50821;SDS011;36794;51.212;6.980;2022-11-14T11:21:11;20.17;;;11.43;;
50821;SDS011;36794;51.212;6.980;2022-11-14T11:23:47;16.93;;;11.17;;
50821;SDS011;36794;51.212;6.980;2022-11-14T11:26:18;20.00;;;11.80;;
50821;SDS011;36794;51.212;6.980;2022-11-14T11:28:44;20.87;;;12.03;;
50821;SDS011;36794;51.212;6.980;2022-11-14T11:31:25;21.63;;;12.70;;
50821;SDS011;36794;51.212;6.980;2022-11-14T11:33:51;19.00;;;12.30;;
50821;SDS011;36794;51.212;6.980;2022-11-14T11:36:17;19.80;;;12.37;;
50821;SDS011;36794;51.212;6.980;2022-11-14T11:38:44;21.40;;;13.27;;
50821;SDS011;36794;51.212;6.980;2022-11-14T11:41:53;18.50;;;11.97;;
50821;SDS011;36794;51.212;6.980;2022-11-14T11:44:01;19.70;;;11.97;;
50821;SDS011;36794;51.212;6.980;2022-11-14T11:46:43;16.77;;;11.43;;
50821;SDS011;36794;51.212;6.980;2022-11-14T11:49:46;20.73;;;12.63;;
50821;SDS011;36794;51.212;6.980;2022-11-14T11:52:09;17.17;;;11.63;;
50821;SDS011;36794;51.212;6.980;2022-11-14T11:57:33;20.77;;;11.50;;
50821;SDS011;36794;51.212;6.980;2022-11-14T12:00:03;17.53;;;11.50;;
50821;SDS011;36794;51.212;6.980;2022-11-14T12:02:30;18.03;;;11.27;;
50821;SDS011;36794;51.212;6.980;2022-11-14T12:04:56;16.93;;;11.00;;
50821;SDS011;36794;51.212;6.980;2022-11-14T12:07:35;17.97;;;10.80;;
50821;SDS011;36794;51.212;6.980;2022-11-14T12:10:06;18.57;;;11.27;;
50821;SDS011;36794;51.212;6.980;2022-11-14T12:15:10;16.60;;;10.93;;
50821;SDS011;36794;51.212;6.980;2022-11-14T12:30:37;15.07;;;10.43;;
50821;SDS011;36794;51.212;6.980;2022-11-14T12:33:08;16.63;;;10.30;;
50821;SDS011;36794;51.212;6.980;2022-11-14T12:35:35;19.17;;;11.30;;
50821;SDS011;36794;51.212;6.980;2022-11-14T12:38:03;20.43;;;11.03;;
50821;SDS011;36794;51.212;6.980;2022-11-14T12:40:31;16.30;;;10.77;;
50821;SDS011;36794;51.212;6.980;2022-11-14T12:42:58;17.10;;;10.83;;
50821;SDS011;36794;51.212;6.980;2022-11-14T12:48:13;16.27;;;10.83;;
50821;SDS011;36794;51.212;6.980;2022-11-14T12:50:40;15.57;;;10.63;;
50821;SDS011;36794;51.212;6.980;2022-11-14T13:03:58;16.63;;;10.43;;
50821;SDS011;36794;51.212;6.980;2022-11-14T13:14:14;19.33;;;12.80;;
50821;SDS011;36794;51.212;6.980;2022-11-14T13:17:09;16.27;;;11.17;;
50821;SDS011;36794;51.212;6.980;2022-11-14T13:19:53;21.30;;;11.50;;
50821;SDS011;36794;51.212;6.980;2022-11-14T13:22:39;18.42;;;11.38;;
50821;SDS011;36794;51.212;6.980;2022-11-14T13:25:18;21.57;;;12.70;;
50821;SDS011;36794;51.212;6.980;2022-11-14T13:27:44;21.70;;;13.00;;
50821;SDS011;36794;51.212;6.980;2022-11-14T13:30:11;21.50;;;12.70;;
50821;SDS011;36794;51.212;6.980;2022-11-14T13:45:40;18.53;;;12.00;;
50821;SDS011;36794;51.212;6.980;2022-11-14T13:50:45;18.93;;;12.83;;
50821;SDS011;36794;51.212;6.980;2022-11-14T13:53:13;19.03;;;12.40;;
50821;SDS011;36794;51.212;6.980;2022-11-14T13:55:54;19.80;;;11.87;;
50821;SDS011;36794;51.212;6.980;2022-11-14T13:58:30;16.90;;;11.47;;
50821;SDS011;36794;51.212;6.980;2022-11-14T14:01:02;22.30;;;12.73;;
50821;SDS011;36794;51.212;6.980;2022-11-14T14:03:34;18.60;;;12.20;;
50821;SDS011;36794;51.212;6.980;2022-11-14T14:13:57;19.43;;;11.87;;
50821;SDS011;36794;51.212;6.980;2022-11-14T14:19:17;19.08;;;11.70;;
50821;SDS011;36794;51.212;6.980;2022-11-14T14:21:51;18.30;;;11.90;;
50821;SDS011;36794;51.212;6.980;2022-11-14T14:24:39;18.50;;;11.87;;
50821;SDS011;36794;51.212;6.980;2022-11-14T14:32:25;23.20;;;13.35;;
50821;SDS011;36794;51.212;6.980;2022-11-14T14:34:51;21.10;;;12.07;;
50821;SDS011;36794;51.212;6.980;2022-11-14T14:37:22;21.10;;;12.60;;
50821;SDS011;36794;51.212;6.980;2022-11-14T14:39:58;23.57;;;13.63;;
50821;SDS011;36794;51.212;6.980;2022-11-14T14:42:25;19.90;;;12.13;;
50821;SDS011;36794;51.212;6.980;2022-11-14T14:44:52;19.47;;;12.63;;
50821;SDS011;36794;51.212;6.980;2022-11-14T14:49:50;21.73;;;13.10;;
50821;SDS011;36794;51.212;6.980;2022-11-14T14:52:33;19.10;;;12.57;;
50821;SDS011;36794;51.212;6.980;2022-11-14T14:55:00;16.10;;;9.75;;
50821;SDS011;36794;51.212;6.980;2022-11-14T14:57:27;19.00;;;12.20;;
50821;SDS011;36794;51.212;6.980;2022-11-14T15:00:05;21.23;;;12.83;;
50821;SDS011;36794;51.212;6.980;2022-11-14T15:02:31;22.20;;;13.33;;
50821;SDS011;36794;51.212;6.980;2022-11-14T15:04:58;21.63;;;13.03;;
50821;SDS011;36794;51.212;6.980;2022-11-14T15:07:25;22.07;;;13.07;;
50821;SDS011;36794;51.212;6.980;2022-11-14T15:09:52;21.47;;;12.50;;
50821;SDS011;36794;51.212;6.980;2022-11-14T15:12:18;24.10;;;13.07;;
50821;SDS011;36794;51.212;6.980;2022-11-14T15:14:44;20.90;;;13.60;;
50821;SDS011;36794;51.212;6.980;2022-11-14T15:17:10;20.37;;;12.33;;
50821;SDS011;36794;51.212;6.980;2022-11-14T15:19:37;20.70;;;12.60;;
50821;SDS011;36794;51.212;6.980;2022-11-14T15:22:19;24.90;;;13.07;;
50821;SDS011;36794;51.212;6.980;2022-11-14T15:25:13;22.67;;;12.63;;
50821;SDS011;36794;51.212;6.980;2022-11-14T15:30:18;22.20;;;12.60;;
50821;SDS011;36794;51.212;6.980;2022-11-14T15:32:48;21.50;;;12.97;;
50821;SDS011;36794;51.212;6.980;2022-11-14T15:40:25;22.30;;;12.47;;
50821;SDS011;36794;51.212;6.980;2022-11-14T15:42:51;21.17;;;13.23;;
50821;SDS011;36794;51.212;6.980;2022-11-14T15:47:46;18.80;;;13.47;;
50821;SDS011;36794;51.212;6.980;2022-11-14T15:53:02;26.03;;;13.90;;
50821;SDS011;36794;51.212;6.980;2022-11-14T15:55:26;21.40;;;13.00;;
50821;SDS011;36794;51.212;6.980;2022-11-14T15:57:52;28.43;;;13.93;;
50821;SDS011;36794;51.212;6.980;2022-11-14T16:00:18;19.10;;;12.87;;
50821;SDS011;36794;51.212;6.980;2022-11-14T16:02:51;22.43;;;12.73;;
50821;SDS011;36794;51.212;6.980;2022-11-14T16:05:20;20.27;;;13.23;;
50821;SDS011;36794;51.212;6.980;2022-11-14T16:07:49;20.67;;;12.90;;
50821;SDS011;36794;51.212;6.980;2022-11-14T16:10:17;20.43;;;12.80;;
50821;SDS011;36794;51.212;6.980;2022-11-14T16:12:43;19.57;;;12.73;;
50821;SDS011;36794;51.212;6.980;2022-11-14T16:15:09;19.97;;;12.93;;
50821;SDS011;36794;51.212;6.980;2022-11-14T16:17:36;24.10;;;13.57;;
50821;SDS011;36794;51.212;6.980;2022-11-14T16:20:06;20.20;;;12.30;;
50821;SDS011;36794;51.212;6.980;2022-11-14T16:22:32;24.23;;;12.67;;
50821;SDS011;36794;51.212;6.980;2022-11-14T16:24:59;19.87;;;13.10;;
50821;SDS011;36794;51.212;6.980;2022-11-14T16:27:28;20.00;;;12.33;;
50821;SDS011;36794;51.212;6.980;2022-11-14T16:29:54;21.17;;;12.90;;
50821;SDS011;36794;51.212;6.980;2022-11-14T16:32:20;22.40;;;13.30;;
50821;SDS011;36794;51.212;6.980;2022-11-14T16:34:47;21.67;;;12.63;;